sensor_id;sensor_type;location;lat;lon;timestamp;temperature;humidity
3954;DHT22;1991;48.682;9.030;2022-12-26T00:01:45;9.60;99.90
3954;DHT22;1991;48.682;9.030;2022-12-26T00:04:13;9.60;99.90
3954;DHT22;1991;48.682;9.030;2022-12-26T00:06:38;9.60;99.90
3954;DHT22;1991;48.682;9.030;2022-12-26T00:09:05;9.60;99.90
3954;DHT22;1991;48.682;9.030;2022-12-26T00:11:31;9.60;99.90
3954;DHT22;1991;48.682;9.030;2022-12-26T00:14:00;9.70;99.90
3954;DHT22;1991;48.682;9.030;2022-12-26T00:16:27;9.60;99.90
3954;DHT22;1991;48.682;9.030;2022-12-26T00:18:53;9.60;99.90
3954;DHT22;1991;48.682;9.030;2022-12-26T00:21:20;9.60;99.90
3954;DHT22;1991;48.682;9.030;2022-12-26T00:23:46;9.60;99.90
3954;DHT22;1991;48.682;9.030;2022-12-26T00:26:17;9.60;99.90
3954;DHT22;1991;48.682;9.030;2022-12-26T00:28:44;9.50;99.90
3954;DHT22;1991;48.682;9.030;2022-12-26T00:31:18;9.60;99.90
3954;DHT22;1991;48.682;9.030;2022-12-26T00:33:44;9.60;99.90
3954;DHT22;1991;48.682;9.030;2022-12-26T00:36:22;9.50;99.90
3954;DHT22;1991;48.682;9.030;2022-12-26T00:38:48;9.50;99.90
3954;DHT22;1991;48.682;9.030;2022-12-26T00:41:15;9.40;99.90
3954;DHT22;1991;48.682;9.030;2022-12-26T00:43:41;9.40;99.90
3954;DHT22;1991;48.682;9.030;2022-12-26T00:46:07;9.50;99.90
3954;DHT22;1991;48.682;9.030;2022-12-26T00:48:33;9.50;99.90
3954;DHT22;1991;48.682;9.030;2022-12-26T00:50:59;9.50;99.90
3954;DHT22;1991;48.682;9.030;2022-12-26T00:53:25;9.40;99.90
3954;DHT22;1991;48.682;9.030;2022-12-26T00:55:52;9.50;99.90
3954;DHT22;1991;48.682;9.030;2022-12-26T00:58:19;9.50;99.90
3954;DHT22;1991;48.682;9.030;2022-12-26T01:00:45;9.50;99.90
3954;DHT22;1991;48.682;9.030;2022-12-26T01:03:11;9.50;99.90
3954;DHT22;1991;48.682;9.030;2022-12-26T01:05:42;9.50;99.90
3954;DHT22;1991;48.682;9.030;2022-12-26T01:08:08;9.50;99.90
3954;DHT22;1991;48.682;9.030;2022-12-26T01:10:33;9.50;99.90
3954;DHT22;1991;48.682;9.030;2022-12-26T01:12:59;9.60;99.90
3954;DHT22;1991;48.682;9.030;2022-12-26T01:15:24;9.60;99.90
3954;DHT22;1991;48.682;9.030;2022-12-26T01:17:50;9.70;99.90
3954;DHT22;1991;48.682;9.030;2022-12-26T01:20:15;9.70;99.90
3954;DHT22;1991;48.682;9.030;2022-12-26T01:22:41;9.70;99.90
3954;DHT22;1991;48.682;9.030;2022-12-26T01:25:07;9.70;99.90
3954;DHT22;1991;48.682;9.030;2022-12-26T01:27:33;9.70;99.90
3954;DHT22;1991;48.682;9.030;2022-12-26T01:29:58;9.70;99.90
3954;DHT22;1991;48.682;9.030;2022-12-26T01:32:24;9.70;99.90
3954;DHT22;1991;48.682;9.030;2022-12-26T01:34:49;9.60;99.90
3954;DHT22;1991;48.682;9.030;2022-12-26T01:37:19;9.70;99.90
3954;DHT22;1991;48.682;9.030;2022-12-26T01:39:45;9.80;99.90
3954;DHT22;1991;48.682;9.030;2022-12-26T01:42:16;9.90;99.90
3954;DHT22;1991;48.682;9.030;2022-12-26T01:50:40;9.90;99.90
3954;DHT22;1991;48.682;9.030;2022-12-26T01:55:40;10.00;99.90
3954;DHT22;1991;48.682;9.030;2022-12-26T01:58:12;10.10;99.90
3954;DHT22;1991;48.682;9.030;2022-12-26T02:00:39;10.00;99.90
3954;DHT22;1991;48.682;9.030;2022-12-26T02:03:07;10.00;99.90
3954;DHT22;1991;48.682;9.030;2022-12-26T02:05:53;10.00;99.90
3954;DHT22;1991;48.682;9.030;2022-12-26T02:08:23;10.00;99.90
3954;DHT22;1991;48.682;9.030;2022-12-26T02:11:12;10.00;99.90
3954;DHT22;1991;48.682;9.030;2022-12-26T02:13:40;10.00;99.90
3954;DHT22;1991;48.682;9.030;2022-12-26T02:16:08;10.00;99.90
3954;DHT22;1991;48.682;9.030;2022-12-26T02:18:35;10.00;99.90
3954;DHT22;1991;48.682;9.030;2022-12-26T02:27:01;10.10;99.90
3954;DHT22;1991;48.682;9.030;2022-12-26T02:46:34;10.20;99.90
3954;DHT22;1991;48.682;9.030;2022-12-26T02:52:50;10.20;99.90
3954;DHT22;1991;48.682;9.030;2022-12-26T02:55:42;10.20;99.90
3954;DHT22;1991;48.682;9.030;2022-12-26T02:58:56;10.20;99.90
3954;DHT22;1991;48.682;9.030;2022-12-26T03:01:44;10.20;99.90
3954;DHT22;1991;48.682;9.030;2022-12-26T03:04:31;10.20;99.90
3954;DHT22;1991;48.682;9.030;2022-12-26T03:07:23;10.10;99.90
3954;DHT22;1991;48.682;9.030;2022-12-26T03:10:20;10.00;99.90
3954;DHT22;1991;48.682;9.030;2022-12-26T03:13:22;10.00;99.90
3954;DHT22;1991;48.682;9.030;2022-12-26T03:18:41;10.00;99.90
3954;DHT22;1991;48.682;9.030;2022-12-26T03:21:08;10.00;99.90
3954;DHT22;1991;48.682;9.030;2022-12-26T03:23:35;10.00;99.90
3954;DHT22;1991;48.682;9.030;2022-12-26T03:26:07;9.90;99.90
3954;DHT22;1991;48.682;9.030;2022-12-26T03:28:54;9.90;99.90
3954;DHT22;1991;48.682;9.030;2022-12-26T03:31:39;9.90;99.90
3954;DHT22;1991;48.682;9.030;2022-12-26T03:34:06;9.80;99.90
3954;DHT22;1991;48.682;9.030;2022-12-26T03:39:39;9.70;99.90
3954;DHT22;1991;48.682;9.030;2022-12-26T03:48:11;9.70;99.90
3954;DHT22;1991;48.682;9.030;2022-12-26T03:51:45;9.80;99.90
3954;DHT22;1991;48.682;9.030;2022-12-26T03:57:38;9.70;99.90
3954;DHT22;1991;48.682;9.030;2022-12-26T04:00:25;9.70;99.90
3954;DHT22;1991;48.682;9.030;2022-12-26T04:03:12;9.70;99.90
3954;DHT22;1991;48.682;9.030;2022-12-26T04:05:58;9.60;99.90
3954;DHT22;1991;48.682;9.030;2022-12-26T04:08:58;9.60;99.90
3954;DHT22;1991;48.682;9.030;2022-12-26T04:11:43;9.60;99.90
3954;DHT22;1991;48.682;9.030;2022-12-26T04:14:52;9.60;99.90
3954;DHT22;1991;48.682;9.030;2022-12-26T04:23:35;9.80;99.90
3954;DHT22;1991;48.682;9.030;2022-12-26T04:26:29;9.80;99.90
3954;DHT22;1991;48.682;9.030;2022-12-26T04:29:14;9.90;99.90
3954;DHT22;1991;48.682;9.030;2022-12-26T04:35:04;9.90;99.90
3954;DHT22;1991;48.682;9.030;2022-12-26T04:37:51;10.00;99.90
3954;DHT22;1991;48.682;9.030;2022-12-26T04:40:43;10.00;99.90
3954;DHT22;1991;48.682;9.030;2022-12-26T04:43:28;10.10;99.90
3954;DHT22;1991;48.682;9.030;2022-12-26T04:46:14;10.10;99.90
3954;DHT22;1991;48.682;9.030;2022-12-26T04:48:42;10.10;99.90
3954;DHT22;1991;48.682;9.030;2022-12-26T04:51:27;10.20;99.90
3954;DHT22;1991;48.682;9.030;2022-12-26T04:53:53;10.10;99.90
3954;DHT22;1991;48.682;9.030;2022-12-26T04:56:18;10.10;99.90
3954;DHT22;1991;48.682;9.030;2022-12-26T04:58:44;10.10;99.90
3954;DHT22;1991;48.682;9.030;2022-12-26T05:01:10;10.10;99.90
3954;DHT22;1991;48.682;9.030;2022-12-26T05:03:54;10.10;99.90
3954;DHT22;1991;48.682;9.030;2022-12-26T05:06:38;10.10;99.90
3954;DHT22;1991;48.682;9.030;2022-12-26T05:09:22;10.00;99.90
3954;DHT22;1991;48.682;9.030;2022-12-26T05:12:05;9.90;99.90
3954;DHT22;1991;48.682;9.030;2022-12-26T05:14:31;9.70;99.90
3954;DHT22;1991;48.682;9.030;2022-12-26T05:16:58;9.60;99.90
3954;DHT22;1991;48.682;9.030;2022-12-26T05:19:43;9.60;99.90
3954;DHT22;1991;48.682;9.030;2022-12-26T05:22:29;9.60;99.90
3954;DHT22;1991;48.682;9.030;2022-12-26T05:25:22;9.60;99.90
3954;DHT22;1991;48.682;9.030;2022-12-26T05:28:11;9.70;99.90
3954;DHT22;1991;48.682;9.030;2022-12-26T05:30:56;9.70;99.90
3954;DHT22;1991;48.682;9.030;2022-12-26T05:33:21;9.60;99.90
3954;DHT22;1991;48.682;9.030;2022-12-26T05:36:06;9.70;99.90
3954;DHT22;1991;48.682;9.030;2022-12-26T05:38:32;9.70;99.90
3954;DHT22;1991;48.682;9.030;2022-12-26T05:40:57;9.70;99.90
3954;DHT22;1991;48.682;9.030;2022-12-26T05:43:23;9.80;99.90
3954;DHT22;1991;48.682;9.030;2022-12-26T05:45:48;9.80;99.90
3954;DHT22;1991;48.682;9.030;2022-12-26T05:48:14;9.90;99.90
3954;DHT22;1991;48.682;9.030;2022-12-26T05:50:39;9.90;99.90
3954;DHT22;1991;48.682;9.030;2022-12-26T05:53:05;9.90;99.90
3954;DHT22;1991;48.682;9.030;2022-12-26T05:55:30;10.00;99.90
3954;DHT22;1991;48.682;9.030;2022-12-26T05:57:58;10.10;99.90
3954;DHT22;1991;48.682;9.030;2022-12-26T06:00:24;10.10;99.90
3954;DHT22;1991;48.682;9.030;2022-12-26T06:02:50;10.10;99.90
3954;DHT22;1991;48.682;9.030;2022-12-26T06:05:16;10.10;99.90
3954;DHT22;1991;48.682;9.030;2022-12-26T06:07:42;10.10;99.90
3954;DHT22;1991;48.682;9.030;2022-12-26T06:10:08;10.20;99.90
3954;DHT22;1991;48.682;9.030;2022-12-26T06:12:34;10.10;99.90
3954;DHT22;1991;48.682;9.030;2022-12-26T06:14:59;10.00;99.90
3954;DHT22;1991;48.682;9.030;2022-12-26T06:17:25;9.90;99.90
3954;DHT22;1991;48.682;9.030;2022-12-26T06:19:51;9.90;99.90
3954;DHT22;1991;48.682;9.030;2022-12-26T06:22:16;9.90;99.90
3954;DHT22;1991;48.682;9.030;2022-12-26T06:24:42;9.90;99.90
3954;DHT22;1991;48.682;9.030;2022-12-26T06:27:07;10.00;99.90
3954;DHT22;1991;48.682;9.030;2022-12-26T06:29:33;10.00;99.90
3954;DHT22;1991;48.682;9.030;2022-12-26T06:31:59;10.00;99.90
3954;DHT22;1991;48.682;9.030;2022-12-26T06:34:24;10.00;99.90
3954;DHT22;1991;48.682;9.030;2022-12-26T06:36:52;10.00;99.90
3954;DHT22;1991;48.682;9.030;2022-12-26T06:39:18;10.10;99.90
3954;DHT22;1991;48.682;9.030;2022-12-26T06:41:43;10.10;99.90
3954;DHT22;1991;48.682;9.030;2022-12-26T06:44:10;10.10;99.90
3954;DHT22;1991;48.682;9.030;2022-12-26T06:46:35;10.10;99.90
3954;DHT22;1991;48.682;9.030;2022-12-26T06:49:01;10.10;99.90
3954;DHT22;1991;48.682;9.030;2022-12-26T06:51:26;10.10;99.90
3954;DHT22;1991;48.682;9.030;2022-12-26T06:53:55;10.10;99.90
3954;DHT22;1991;48.682;9.030;2022-12-26T06:56:25;10.20;99.90
3954;DHT22;1991;48.682;9.030;2022-12-26T06:58:55;10.20;99.90
3954;DHT22;1991;48.682;9.030;2022-12-26T07:01:21;10.20;99.90
3954;DHT22;1991;48.682;9.030;2022-12-26T07:03:48;10.10;99.90
3954;DHT22;1991;48.682;9.030;2022-12-26T07:08:45;10.20;99.90
3954;DHT22;1991;48.682;9.030;2022-12-26T07:11:19;10.20;99.90
3954;DHT22;1991;48.682;9.030;2022-12-26T07:13:45;10.20;99.90
3954;DHT22;1991;48.682;9.030;2022-12-26T07:16:11;10.30;99.90
3954;DHT22;1991;48.682;9.030;2022-12-26T07:18:37;10.30;99.90
3954;DHT22;1991;48.682;9.030;2022-12-26T07:21:07;10.30;99.90
3954;DHT22;1991;48.682;9.030;2022-12-26T07:23:33;10.30;99.90
3954;DHT22;1991;48.682;9.030;2022-12-26T07:25:59;10.30;99.90
3954;DHT22;1991;48.682;9.030;2022-12-26T07:28:26;10.20;99.90
3954;DHT22;1991;48.682;9.030;2022-12-26T07:30:51;10.20;99.90
3954;DHT22;1991;48.682;9.030;2022-12-26T07:33:17;10.20;99.90
3954;DHT22;1991;48.682;9.030;2022-12-26T07:35:43;10.30;99.90
3954;DHT22;1991;48.682;9.030;2022-12-26T07:38:09;10.20;99.90
3954;DHT22;1991;48.682;9.030;2022-12-26T07:40:35;10.20;99.90
3954;DHT22;1991;48.682;9.030;2022-12-26T07:43:01;10.20;99.90
3954;DHT22;1991;48.682;9.030;2022-12-26T07:45:26;10.20;99.90
3954;DHT22;1991;48.682;9.030;2022-12-26T07:47:56;10.30;99.90
3954;DHT22;1991;48.682;9.030;2022-12-26T07:50:26;10.20;99.90
3954;DHT22;1991;48.682;9.030;2022-12-26T07:52:52;10.30;99.90
3954;DHT22;1991;48.682;9.030;2022-12-26T07:55:17;10.40;99.90
3954;DHT22;1991;48.682;9.030;2022-12-26T07:57:43;10.40;99.90
3954;DHT22;1991;48.682;9.030;2022-12-26T08:00:09;10.40;99.90
3954;DHT22;1991;48.682;9.030;2022-12-26T08:02:35;10.40;99.90
3954;DHT22;1991;48.682;9.030;2022-12-26T08:05:01;10.30;99.90
3954;DHT22;1991;48.682;9.030;2022-12-26T08:07:26;10.30;99.90
3954;DHT22;1991;48.682;9.030;2022-12-26T08:09:52;10.30;99.90
3954;DHT22;1991;48.682;9.030;2022-12-26T08:12:17;10.30;99.90
3954;DHT22;1991;48.682;9.030;2022-12-26T08:14:46;10.20;99.90
3954;DHT22;1991;48.682;9.030;2022-12-26T08:17:12;10.20;99.90
3954;DHT22;1991;48.682;9.030;2022-12-26T08:19:38;10.20;99.90
3954;DHT22;1991;48.682;9.030;2022-12-26T08:22:03;10.10;99.90
3954;DHT22;1991;48.682;9.030;2022-12-26T08:24:29;10.10;99.90
3954;DHT22;1991;48.682;9.030;2022-12-26T08:26:55;10.10;99.90
3954;DHT22;1991;48.682;9.030;2022-12-26T08:29:20;10.10;99.90
3954;DHT22;1991;48.682;9.030;2022-12-26T08:31:46;10.10;99.90
3954;DHT22;1991;48.682;9.030;2022-12-26T08:34:11;10.20;99.90
3954;DHT22;1991;48.682;9.030;2022-12-26T08:36:38;10.10;99.90
3954;DHT22;1991;48.682;9.030;2022-12-26T08:39:03;10.10;99.90
3954;DHT22;1991;48.682;9.030;2022-12-26T08:41:29;10.10;99.90
3954;DHT22;1991;48.682;9.030;2022-12-26T08:43:55;10.10;99.90
3954;DHT22;1991;48.682;9.030;2022-12-26T08:46:21;10.10;99.90
3954;DHT22;1991;48.682;9.030;2022-12-26T08:48:47;10.10;99.90
3954;DHT22;1991;48.682;9.030;2022-12-26T08:51:15;10.10;99.90
3954;DHT22;1991;48.682;9.030;2022-12-26T08:53:42;10.10;99.90
3954;DHT22;1991;48.682;9.030;2022-12-26T08:56:12;10.10;99.90
3954;DHT22;1991;48.682;9.030;2022-12-26T08:58:38;10.00;99.90
3954;DHT22;1991;48.682;9.030;2022-12-26T09:01:24;10.00;99.90
3954;DHT22;1991;48.682;9.030;2022-12-26T09:03:55;10.00;99.90
3954;DHT22;1991;48.682;9.030;2022-12-26T09:06:22;10.00;99.90
3954;DHT22;1991;48.682;9.030;2022-12-26T09:08:48;9.90;99.90
3954;DHT22;1991;48.682;9.030;2022-12-26T09:11:17;9.90;99.90
3954;DHT22;1991;48.682;9.030;2022-12-26T09:13:44;9.90;99.90
3954;DHT22;1991;48.682;9.030;2022-12-26T09:16:18;9.90;99.90
3954;DHT22;1991;48.682;9.030;2022-12-26T09:18:46;9.90;99.90
3954;DHT22;1991;48.682;9.030;2022-12-26T09:21:13;9.90;99.90
3954;DHT22;1991;48.682;9.030;2022-12-26T09:23:39;9.90;99.90
3954;DHT22;1991;48.682;9.030;2022-12-26T09:26:07;9.90;99.90
3954;DHT22;1991;48.682;9.030;2022-12-26T09:28:34;9.90;99.90
3954;DHT22;1991;48.682;9.030;2022-12-26T09:31:01;9.90;99.90
3954;DHT22;1991;48.682;9.030;2022-12-26T09:33:28;9.90;99.90
3954;DHT22;1991;48.682;9.030;2022-12-26T09:35:54;9.90;99.90
3954;DHT22;1991;48.682;9.030;2022-12-26T09:38:19;9.80;99.90
3954;DHT22;1991;48.682;9.030;2022-12-26T09:41:04;9.70;99.90
3954;DHT22;1991;48.682;9.030;2022-12-26T09:44:45;9.70;99.90
3954;DHT22;1991;48.682;9.030;2022-12-26T09:47:06;9.70;99.90
3954;DHT22;1991;48.682;9.030;2022-12-26T09:49:43;9.60;99.90
3954;DHT22;1991;48.682;9.030;2022-12-26T09:52:16;9.60;99.90
3954;DHT22;1991;48.682;9.030;2022-12-26T09:54:49;9.60;99.90
3954;DHT22;1991;48.682;9.030;2022-12-26T09:57:17;9.60;99.90
3954;DHT22;1991;48.682;9.030;2022-12-26T09:59:49;9.60;99.90
3954;DHT22;1991;48.682;9.030;2022-12-26T10:02:21;9.60;99.90
3954;DHT22;1991;48.682;9.030;2022-12-26T10:04:48;9.60;99.90
3954;DHT22;1991;48.682;9.030;2022-12-26T10:13:07;9.60;99.90
3954;DHT22;1991;48.682;9.030;2022-12-26T10:21:48;9.60;99.90
3954;DHT22;1991;48.682;9.030;2022-12-26T10:24:21;9.60;99.90
3954;DHT22;1991;48.682;9.030;2022-12-26T10:26:50;9.60;99.90
3954;DHT22;1991;48.682;9.030;2022-12-26T10:29:32;9.60;99.90
3954;DHT22;1991;48.682;9.030;2022-12-26T10:31:59;9.60;99.90
3954;DHT22;1991;48.682;9.030;2022-12-26T10:34:36;9.60;99.90
3954;DHT22;1991;48.682;9.030;2022-12-26T10:37:12;9.70;99.90
3954;DHT22;1991;48.682;9.030;2022-12-26T10:40:06;9.70;99.90
3954;DHT22;1991;48.682;9.030;2022-12-26T10:42:41;9.80;99.90
3954;DHT22;1991;48.682;9.030;2022-12-26T10:45:24;9.80;99.90
3954;DHT22;1991;48.682;9.030;2022-12-26T10:47:54;9.70;99.90
3954;DHT22;1991;48.682;9.030;2022-12-26T10:50:23;9.80;99.90
3954;DHT22;1991;48.682;9.030;2022-12-26T10:52:50;9.80;99.90
3954;DHT22;1991;48.682;9.030;2022-12-26T10:55:18;9.80;99.90
3954;DHT22;1991;48.682;9.030;2022-12-26T10:57:47;9.90;99.90
3954;DHT22;1991;48.682;9.030;2022-12-26T11:03:02;10.00;99.90
3954;DHT22;1991;48.682;9.030;2022-12-26T11:05:28;10.00;99.90
3954;DHT22;1991;48.682;9.030;2022-12-26T11:07:56;10.00;99.90
3954;DHT22;1991;48.682;9.030;2022-12-26T11:10:30;10.00;99.90
3954;DHT22;1991;48.682;9.030;2022-12-26T11:13:03;10.00;99.90
3954;DHT22;1991;48.682;9.030;2022-12-26T11:15:34;10.00;99.90
3954;DHT22;1991;48.682;9.030;2022-12-26T11:18:21;10.10;99.90
3954;DHT22;1991;48.682;9.030;2022-12-26T11:20:48;10.10;99.90
3954;DHT22;1991;48.682;9.030;2022-12-26T11:23:27;10.10;99.90
3954;DHT22;1991;48.682;9.030;2022-12-26T11:25:58;10.10;99.90
3954;DHT22;1991;48.682;9.030;2022-12-26T11:28:27;10.10;99.90
3954;DHT22;1991;48.682;9.030;2022-12-26T11:30:54;10.10;99.90
3954;DHT22;1991;48.682;9.030;2022-12-26T11:33:32;10.10;99.90
3954;DHT22;1991;48.682;9.030;2022-12-26T11:38:30;10.10;99.90
3954;DHT22;1991;48.682;9.030;2022-12-26T11:41:08;10.10;99.90
3954;DHT22;1991;48.682;9.030;2022-12-26T11:43:55;10.10;99.90
3954;DHT22;1991;48.682;9.030;2022-12-26T11:46:38;10.10;99.90
3954;DHT22;1991;48.682;9.030;2022-12-26T11:49:05;10.00;99.90
3954;DHT22;1991;48.682;9.030;2022-12-26T11:51:38;10.00;99.90
3954;DHT22;1991;48.682;9.030;2022-12-26T11:56:41;9.90;99.90
3954;DHT22;1991;48.682;9.030;2022-12-26T11:59:18;9.90;99.90
3954;DHT22;1991;48.682;9.030;2022-12-26T12:01:45;9.90;99.90
3954;DHT22;1991;48.682;9.030;2022-12-26T12:04:11;10.00;99.90
3954;DHT22;1991;48.682;9.030;2022-12-26T12:06:57;10.10;99.90
3954;DHT22;1991;48.682;9.030;2022-12-26T12:12:15;10.00;99.90
3954;DHT22;1991;48.682;9.030;2022-12-26T12:17:23;10.00;99.90
3954;DHT22;1991;48.682;9.030;2022-12-26T12:22:35;10.00;99.90
3954;DHT22;1991;48.682;9.030;2022-12-26T12:33:36;9.80;99.90
3954;DHT22;1991;48.682;9.030;2022-12-26T12:39:01;9.90;99.90
3954;DHT22;1991;48.682;9.030;2022-12-26T12:52:25;10.00;99.90
3954;DHT22;1991;48.682;9.030;2022-12-26T13:00:58;10.00;99.90
3954;DHT22;1991;48.682;9.030;2022-12-26T13:03:32;10.00;99.90
3954;DHT22;1991;48.682;9.030;2022-12-26T13:06:11;10.00;99.90
3954;DHT22;1991;48.682;9.030;2022-12-26T13:08:44;10.00;99.90
3954;DHT22;1991;48.682;9.030;2022-12-26T13:13:58;10.00;99.90
3954;DHT22;1991;48.682;9.030;2022-12-26T13:16:29;10.00;99.90
3954;DHT22;1991;48.682;9.030;2022-12-26T13:19:03;10.00;99.90
3954;DHT22;1991;48.682;9.030;2022-12-26T13:21:34;9.90;99.90
3954;DHT22;1991;48.682;9.030;2022-12-26T13:24:04;9.90;99.90
3954;DHT22;1991;48.682;9.030;2022-12-26T13:29:34;9.80;99.90
3954;DHT22;1991;48.682;9.030;2022-12-26T13:32:01;9.80;99.90
3954;DHT22;1991;48.682;9.030;2022-12-26T13:34:29;9.80;99.90
3954;DHT22;1991;48.682;9.030;2022-12-26T13:36:57;9.90;99.90
3954;DHT22;1991;48.682;9.030;2022-12-26T13:42:30;10.00;99.90
3954;DHT22;1991;48.682;9.030;2022-12-26T13:50:53;9.90;99.90
3954;DHT22;1991;48.682;9.030;2022-12-26T14:01:04;9.70;99.90
3954;DHT22;1991;48.682;9.030;2022-12-26T14:07:10;9.60;99.90
3954;DHT22;1991;48.682;9.030;2022-12-26T14:09:47;9.60;99.90
3954;DHT22;1991;48.682;9.030;2022-12-26T14:15:11;9.60;99.90
3954;DHT22;1991;48.682;9.030;2022-12-26T14:20:32;9.60;99.90
3954;DHT22;1991;48.682;9.030;2022-12-26T14:23:30;9.60;99.90
3954;DHT22;1991;48.682;9.030;2022-12-26T14:26:25;9.60;99.90
3954;DHT22;1991;48.682;9.030;2022-12-26T14:45:37;9.60;99.90
3954;DHT22;1991;48.682;9.030;2022-12-26T14:55:53;9.50;99.90
3954;DHT22;1991;48.682;9.030;2022-12-26T14:58:45;9.40;99.90
3954;DHT22;1991;48.682;9.030;2022-12-26T15:06:38;9.40;99.90
3954;DHT22;1991;48.682;9.030;2022-12-26T15:15:12;9.20;99.90
3954;DHT22;1991;48.682;9.030;2022-12-26T15:20:37;9.10;99.90
3954;DHT22;1991;48.682;9.030;2022-12-26T15:37:21;8.90;99.90
3954;DHT22;1991;48.682;9.030;2022-12-26T15:39:55;8.90;99.90
3954;DHT22;1991;48.682;9.030;2022-12-26T15:42:33;8.90;99.90
3954;DHT22;1991;48.682;9.030;2022-12-26T15:48:05;8.90;99.90
3954;DHT22;1991;48.682;9.030;2022-12-26T15:51:13;8.90;99.90
3954;DHT22;1991;48.682;9.030;2022-12-26T15:59:41;9.00;99.90
3954;DHT22;1991;48.682;9.030;2022-12-26T16:02:37;9.00;99.90
3954;DHT22;1991;48.682;9.030;2022-12-26T16:07:43;9.10;99.90
3954;DHT22;1991;48.682;9.030;2022-12-26T16:18:20;9.00;99.90
3954;DHT22;1991;48.682;9.030;2022-12-26T16:20:48;9.00;99.90
3954;DHT22;1991;48.682;9.030;2022-12-26T16:23:36;9.00;99.90
3954;DHT22;1991;48.682;9.030;2022-12-26T16:26:04;8.90;99.90
3954;DHT22;1991;48.682;9.030;2022-12-26T16:28:39;8.80;99.90
3954;DHT22;1991;48.682;9.030;2022-12-26T16:31:06;8.70;99.90
3954;DHT22;1991;48.682;9.030;2022-12-26T16:33:40;8.80;99.90
3954;DHT22;1991;48.682;9.030;2022-12-26T16:36:08;8.70;99.90
3954;DHT22;1991;48.682;9.030;2022-12-26T16:38:34;8.70;99.90
3954;DHT22;1991;48.682;9.030;2022-12-26T16:41:03;8.70;99.90
3954;DHT22;1991;48.682;9.030;2022-12-26T16:43:31;8.60;99.90
3954;DHT22;1991;48.682;9.030;2022-12-26T16:46:04;8.60;99.90
3954;DHT22;1991;48.682;9.030;2022-12-26T16:48:32;8.60;99.90
3954;DHT22;1991;48.682;9.030;2022-12-26T16:59:53;8.70;99.90
3954;DHT22;1991;48.682;9.030;2022-12-26T17:02:24;8.70;99.90
3954;DHT22;1991;48.682;9.030;2022-12-26T17:04:58;8.70;99.90
3954;DHT22;1991;48.682;9.030;2022-12-26T17:07:24;8.70;99.90
3954;DHT22;1991;48.682;9.030;2022-12-26T17:09:53;8.60;99.90
3954;DHT22;1991;48.682;9.030;2022-12-26T17:12:26;8.60;99.90
3954;DHT22;1991;48.682;9.030;2022-12-26T17:14:54;8.60;99.90
3954;DHT22;1991;48.682;9.030;2022-12-26T17:19:53;8.50;99.90
3954;DHT22;1991;48.682;9.030;2022-12-26T17:22:24;8.60;99.90
3954;DHT22;1991;48.682;9.030;2022-12-26T17:24:51;8.60;99.90
3954;DHT22;1991;48.682;9.030;2022-12-26T17:27:36;8.60;99.90
3954;DHT22;1991;48.682;9.030;2022-12-26T17:30:28;8.70;99.90
3954;DHT22;1991;48.682;9.030;2022-12-26T17:32:54;8.70;99.90
3954;DHT22;1991;48.682;9.030;2022-12-26T17:35:26;8.70;99.90
3954;DHT22;1991;48.682;9.030;2022-12-26T17:37:58;8.80;99.90
3954;DHT22;1991;48.682;9.030;2022-12-26T17:40:44;8.70;99.90
3954;DHT22;1991;48.682;9.030;2022-12-26T17:45:39;8.80;99.90
3954;DHT22;1991;48.682;9.030;2022-12-26T17:48:05;8.80;99.90
3954;DHT22;1991;48.682;9.030;2022-12-26T17:50:37;8.80;99.90
3954;DHT22;1991;48.682;9.030;2022-12-26T17:53:27;8.90;99.90
3954;DHT22;1991;48.682;9.030;2022-12-26T17:55:56;8.90;99.90
3954;DHT22;1991;48.682;9.030;2022-12-26T17:58:23;8.90;99.90
3954;DHT22;1991;48.682;9.030;2022-12-26T18:00:49;8.90;99.90
3954;DHT22;1991;48.682;9.030;2022-12-26T18:03:16;8.90;99.90
3954;DHT22;1991;48.682;9.030;2022-12-26T18:05:42;8.90;99.90
3954;DHT22;1991;48.682;9.030;2022-12-26T18:08:29;8.90;99.90
3954;DHT22;1991;48.682;9.030;2022-12-26T18:10:56;8.80;99.90
3954;DHT22;1991;48.682;9.030;2022-12-26T18:13:22;8.70;99.90
3954;DHT22;1991;48.682;9.030;2022-12-26T18:15:50;8.60;99.90
3954;DHT22;1991;48.682;9.030;2022-12-26T18:18:36;8.60;99.90
3954;DHT22;1991;48.682;9.030;2022-12-26T18:21:04;8.50;99.90
3954;DHT22;1991;48.682;9.030;2022-12-26T18:23:30;8.40;99.90
3954;DHT22;1991;48.682;9.030;2022-12-26T18:25:58;8.40;99.90
3954;DHT22;1991;48.682;9.030;2022-12-26T18:28:25;8.30;99.90
3954;DHT22;1991;48.682;9.030;2022-12-26T18:30:51;8.20;99.90
3954;DHT22;1991;48.682;9.030;2022-12-26T18:33:16;8.10;99.90
3954;DHT22;1991;48.682;9.030;2022-12-26T18:35:43;8.10;99.90
3954;DHT22;1991;48.682;9.030;2022-12-26T18:38:15;8.00;99.90
3954;DHT22;1991;48.682;9.030;2022-12-26T18:40:44;8.00;99.90
3954;DHT22;1991;48.682;9.030;2022-12-26T18:43:12;7.90;99.90
3954;DHT22;1991;48.682;9.030;2022-12-26T18:45:38;7.80;99.90
3954;DHT22;1991;48.682;9.030;2022-12-26T18:48:06;7.80;99.90
3954;DHT22;1991;48.682;9.030;2022-12-26T18:50:33;7.80;99.90
3954;DHT22;1991;48.682;9.030;2022-12-26T18:52:58;7.80;99.90
3954;DHT22;1991;48.682;9.030;2022-12-26T18:55:25;7.80;99.90
3954;DHT22;1991;48.682;9.030;2022-12-26T18:57:51;7.80;99.90
3954;DHT22;1991;48.682;9.030;2022-12-26T19:00:18;7.80;99.90
3954;DHT22;1991;48.682;9.030;2022-12-26T19:02:45;7.80;99.90
3954;DHT22;1991;48.682;9.030;2022-12-26T19:05:27;7.70;99.90
3954;DHT22;1991;48.682;9.030;2022-12-26T19:07:55;7.70;99.90
3954;DHT22;1991;48.682;9.030;2022-12-26T19:10:23;7.70;99.90
3954;DHT22;1991;48.682;9.030;2022-12-26T19:12:49;7.70;99.90
3954;DHT22;1991;48.682;9.030;2022-12-26T19:15:15;7.70;99.90
3954;DHT22;1991;48.682;9.030;2022-12-26T19:17:41;7.60;99.90
3954;DHT22;1991;48.682;9.030;2022-12-26T19:20:17;7.60;99.90
3954;DHT22;1991;48.682;9.030;2022-12-26T19:22:43;7.60;99.90
3954;DHT22;1991;48.682;9.030;2022-12-26T19:25:08;7.60;99.90
3954;DHT22;1991;48.682;9.030;2022-12-26T19:27:34;7.60;99.90
3954;DHT22;1991;48.682;9.030;2022-12-26T19:30:00;7.60;99.90
3954;DHT22;1991;48.682;9.030;2022-12-26T19:32:25;7.60;99.90
3954;DHT22;1991;48.682;9.030;2022-12-26T19:34:51;7.60;99.90
3954;DHT22;1991;48.682;9.030;2022-12-26T19:37:21;7.50;99.90
3954;DHT22;1991;48.682;9.030;2022-12-26T19:39:46;7.40;99.90
3954;DHT22;1991;48.682;9.030;2022-12-26T19:42:12;7.40;99.90
3954;DHT22;1991;48.682;9.030;2022-12-26T19:44:37;7.40;99.90
3954;DHT22;1991;48.682;9.030;2022-12-26T19:47:03;7.50;99.90
3954;DHT22;1991;48.682;9.030;2022-12-26T19:49:29;7.60;99.90
3954;DHT22;1991;48.682;9.030;2022-12-26T19:51:54;7.60;99.90
3954;DHT22;1991;48.682;9.030;2022-12-26T19:54:20;7.60;99.90
3954;DHT22;1991;48.682;9.030;2022-12-26T19:56:45;7.60;99.90
3954;DHT22;1991;48.682;9.030;2022-12-26T19:59:11;7.70;99.90
3954;DHT22;1991;48.682;9.030;2022-12-26T20:01:37;7.70;99.90
3954;DHT22;1991;48.682;9.030;2022-12-26T20:04:04;7.70;99.90
3954;DHT22;1991;48.682;9.030;2022-12-26T20:06:33;7.70;99.90
3954;DHT22;1991;48.682;9.030;2022-12-26T20:09:03;7.80;99.90
3954;DHT22;1991;48.682;9.030;2022-12-26T20:11:32;7.80;99.90
3954;DHT22;1991;48.682;9.030;2022-12-26T20:13:59;7.70;99.90
3954;DHT22;1991;48.682;9.030;2022-12-26T20:16:26;7.80;99.90
3954;DHT22;1991;48.682;9.030;2022-12-26T20:18:53;7.70;99.90
3954;DHT22;1991;48.682;9.030;2022-12-26T20:21:19;7.70;99.90
3954;DHT22;1991;48.682;9.030;2022-12-26T20:23:44;7.60;99.90
3954;DHT22;1991;48.682;9.030;2022-12-26T20:26:19;7.70;99.90
3954;DHT22;1991;48.682;9.030;2022-12-26T20:28:47;7.70;99.90
3954;DHT22;1991;48.682;9.030;2022-12-26T20:31:18;7.60;99.90
3954;DHT22;1991;48.682;9.030;2022-12-26T20:33:47;7.60;99.90
3954;DHT22;1991;48.682;9.030;2022-12-26T20:36:16;7.60;99.90